Terminal Aerodrome Forecast
Issued by NWS

Home | Current Version | Previous Version | Text Only | Print | Product List | Glossary On
Versions: 1 2 3 4 5 6 7 8 9 10 11 12
616
FTUS44 KSJT 250520
TAFSOA
TAF
KSOA 250520Z 2506/2606 16004KT P6SM SKC
     FM251200 17003KT P6SM SCT020
     FM251500 16006KT P6SM SCT040
     FM251900 10006KT P6SM SCT060=

USA.gov is the U.S. government's official web portal to all federal, state and local government web resources and services.